sensor_id;sensor_type;location;lat;lon;timestamp;temperature;humidity
72883;DHT22;61017;37.812;-122.286;2023-04-15T00:00:59;14.50;82.20
72883;DHT22;61017;37.812;-122.286;2023-04-15T00:02:30;14.40;82.10
72883;DHT22;61017;37.812;-122.286;2023-04-15T00:04:02;14.40;82.10
72883;DHT22;61017;37.812;-122.286;2023-04-15T00:05:34;14.50;82.30
72883;DHT22;61017;37.812;-122.286;2023-04-15T00:07:05;14.40;82.10
72883;DHT22;61017;37.812;-122.286;2023-04-15T00:08:37;14.40;82.10
72883;DHT22;61017;37.812;-122.286;2023-04-15T00:10:09;14.40;82.20
72883;DHT22;61017;37.812;-122.286;2023-04-15T00:11:40;14.50;82.20
72883;DHT22;61017;37.812;-122.286;2023-04-15T00:13:12;14.40;82.20
72883;DHT22;61017;37.812;-122.286;2023-04-15T00:14:43;14.50;82.30
72883;DHT22;61017;37.812;-122.286;2023-04-15T00:16:15;14.50;82.30
72883;DHT22;61017;37.812;-122.286;2023-04-15T00:17:49;14.40;82.10
72883;DHT22;61017;37.812;-122.286;2023-04-15T00:19:22;14.40;82.20
72883;DHT22;61017;37.812;-122.286;2023-04-15T00:20:53;14.50;82.30
72883;DHT22;61017;37.812;-122.286;2023-04-15T00:22:26;14.40;82.20
72883;DHT22;61017;37.812;-122.286;2023-04-15T00:23:57;14.50;82.30
72883;DHT22;61017;37.812;-122.286;2023-04-15T00:25:29;14.40;82.30
72883;DHT22;61017;37.812;-122.286;2023-04-15T00:27:01;14.40;82.30
72883;DHT22;61017;37.812;-122.286;2023-04-15T00:28:32;14.40;82.30
72883;DHT22;61017;37.812;-122.286;2023-04-15T00:30:04;14.40;82.30
72883;DHT22;61017;37.812;-122.286;2023-04-15T00:31:36;14.40;82.40
72883;DHT22;61017;37.812;-122.286;2023-04-15T00:33:08;14.40;82.30
72883;DHT22;61017;37.812;-122.286;2023-04-15T00:34:40;14.40;82.50
72883;DHT22;61017;37.812;-122.286;2023-04-15T00:36:11;14.40;82.30
72883;DHT22;61017;37.812;-122.286;2023-04-15T00:37:43;14.40;82.50
72883;DHT22;61017;37.812;-122.286;2023-04-15T00:39:14;14.40;82.50
72883;DHT22;61017;37.812;-122.286;2023-04-15T00:40:46;14.40;82.30
72883;DHT22;61017;37.812;-122.286;2023-04-15T00:42:19;14.40;82.50
72883;DHT22;61017;37.812;-122.286;2023-04-15T00:43:50;14.40;82.50
72883;DHT22;61017;37.812;-122.286;2023-04-15T00:45:22;14.40;82.40
72883;DHT22;61017;37.812;-122.286;2023-04-15T00:46:54;14.40;82.40
72883;DHT22;61017;37.812;-122.286;2023-04-15T00:48:27;14.50;82.50
72883;DHT22;61017;37.812;-122.286;2023-04-15T00:49:59;14.40;82.30
72883;DHT22;61017;37.812;-122.286;2023-04-15T00:51:31;14.50;82.50
72883;DHT22;61017;37.812;-122.286;2023-04-15T00:53:03;14.40;82.30
72883;DHT22;61017;37.812;-122.286;2023-04-15T00:54:36;14.40;82.30
72883;DHT22;61017;37.812;-122.286;2023-04-15T00:56:07;14.40;82.30
72883;DHT22;61017;37.812;-122.286;2023-04-15T00:57:39;14.40;82.30
72883;DHT22;61017;37.812;-122.286;2023-04-15T00:59:13;14.50;82.50
72883;DHT22;61017;37.812;-122.286;2023-04-15T01:00:45;14.40;82.40
72883;DHT22;61017;37.812;-122.286;2023-04-15T01:02:16;14.40;82.40
72883;DHT22;61017;37.812;-122.286;2023-04-15T01:03:49;14.40;82.30
72883;DHT22;61017;37.812;-122.286;2023-04-15T01:05:21;14.50;82.60
72883;DHT22;61017;37.812;-122.286;2023-04-15T01:06:53;14.40;82.30
72883;DHT22;61017;37.812;-122.286;2023-04-15T01:08:28;14.50;82.40
72883;DHT22;61017;37.812;-122.286;2023-04-15T01:10:00;14.40;82.30
72883;DHT22;61017;37.812;-122.286;2023-04-15T01:11:32;14.40;82.30
72883;DHT22;61017;37.812;-122.286;2023-04-15T01:13:03;14.40;82.30
72883;DHT22;61017;37.812;-122.286;2023-04-15T01:14:35;14.50;82.50
72883;DHT22;61017;37.812;-122.286;2023-04-15T01:16:07;14.40;82.40
72883;DHT22;61017;37.812;-122.286;2023-04-15T01:17:39;14.40;82.30
72883;DHT22;61017;37.812;-122.286;2023-04-15T01:19:10;14.40;82.30
72883;DHT22;61017;37.812;-122.286;2023-04-15T01:20:45;14.40;82.30
72883;DHT22;61017;37.812;-122.286;2023-04-15T01:22:17;14.50;82.30
72883;DHT22;61017;37.812;-122.286;2023-04-15T01:23:50;14.50;82.50
72883;DHT22;61017;37.812;-122.286;2023-04-15T01:25:33;14.40;82.50
72883;DHT22;61017;37.812;-122.286;2023-04-15T01:27:04;14.50;82.70
72883;DHT22;61017;37.812;-122.286;2023-04-15T01:28:36;14.40;82.70
72883;DHT22;61017;37.812;-122.286;2023-04-15T01:30:08;14.50;82.70
72883;DHT22;61017;37.812;-122.286;2023-04-15T01:31:44;14.40;82.80
72883;DHT22;61017;37.812;-122.286;2023-04-15T01:33:19;14.50;82.80
72883;DHT22;61017;37.812;-122.286;2023-04-15T01:34:50;14.40;82.70
72883;DHT22;61017;37.812;-122.286;2023-04-15T01:36:22;14.40;82.60
72883;DHT22;61017;37.812;-122.286;2023-04-15T01:37:54;14.50;82.70
72883;DHT22;61017;37.812;-122.286;2023-04-15T01:39:28;14.40;82.60
72883;DHT22;61017;37.812;-122.286;2023-04-15T01:41:00;14.40;82.50
72883;DHT22;61017;37.812;-122.286;2023-04-15T01:42:31;14.40;82.60
72883;DHT22;61017;37.812;-122.286;2023-04-15T01:44:03;14.50;82.70
72883;DHT22;61017;37.812;-122.286;2023-04-15T01:45:35;14.40;82.70
72883;DHT22;61017;37.812;-122.286;2023-04-15T01:47:06;14.50;82.70
72883;DHT22;61017;37.812;-122.286;2023-04-15T01:48:38;14.40;82.80
72883;DHT22;61017;37.812;-122.286;2023-04-15T01:50:10;14.50;82.90
72883;DHT22;61017;37.812;-122.286;2023-04-15T01:51:41;14.50;83.00
72883;DHT22;61017;37.812;-122.286;2023-04-15T01:53:13;14.50;83.20
72883;DHT22;61017;37.812;-122.286;2023-04-15T01:54:45;14.50;83.20
72883;DHT22;61017;37.812;-122.286;2023-04-15T01:56:16;14.50;83.20
72883;DHT22;61017;37.812;-122.286;2023-04-15T01:57:48;14.50;83.40
72883;DHT22;61017;37.812;-122.286;2023-04-15T01:59:19;14.50;83.50
72883;DHT22;61017;37.812;-122.286;2023-04-15T02:00:51;14.50;83.80
72883;DHT22;61017;37.812;-122.286;2023-04-15T02:02:23;14.50;83.90
72883;DHT22;61017;37.812;-122.286;2023-04-15T02:03:54;14.50;84.00
72883;DHT22;61017;37.812;-122.286;2023-04-15T02:05:26;14.50;84.20
72883;DHT22;61017;37.812;-122.286;2023-04-15T02:06:58;14.40;84.10
72883;DHT22;61017;37.812;-122.286;2023-04-15T02:08:29;14.40;84.00
72883;DHT22;61017;37.812;-122.286;2023-04-15T02:10:01;14.50;84.30
72883;DHT22;61017;37.812;-122.286;2023-04-15T02:11:32;14.50;84.20
72883;DHT22;61017;37.812;-122.286;2023-04-15T02:13:04;14.50;84.40
72883;DHT22;61017;37.812;-122.286;2023-04-15T02:14:36;14.50;84.30
72883;DHT22;61017;37.812;-122.286;2023-04-15T02:16:17;14.50;84.30
72883;DHT22;61017;37.812;-122.286;2023-04-15T02:17:49;14.50;84.20
72883;DHT22;61017;37.812;-122.286;2023-04-15T02:19:21;14.50;84.30
72883;DHT22;61017;37.812;-122.286;2023-04-15T02:20:52;14.50;84.30
72883;DHT22;61017;37.812;-122.286;2023-04-15T02:22:24;14.50;84.30
72883;DHT22;61017;37.812;-122.286;2023-04-15T02:23:55;14.40;84.10
72883;DHT22;61017;37.812;-122.286;2023-04-15T02:25:27;14.50;84.30
72883;DHT22;61017;37.812;-122.286;2023-04-15T02:26:59;14.50;84.30
72883;DHT22;61017;37.812;-122.286;2023-04-15T02:28:30;14.50;84.30
72883;DHT22;61017;37.812;-122.286;2023-04-15T02:30:02;14.50;84.30
72883;DHT22;61017;37.812;-122.286;2023-04-15T02:31:34;14.50;84.20
72883;DHT22;61017;37.812;-122.286;2023-04-15T02:33:05;14.50;84.20
72883;DHT22;61017;37.812;-122.286;2023-04-15T02:34:38;14.50;84.20
72883;DHT22;61017;37.812;-122.286;2023-04-15T02:36:10;14.50;84.20
72883;DHT22;61017;37.812;-122.286;2023-04-15T02:37:41;14.50;84.30
72883;DHT22;61017;37.812;-122.286;2023-04-15T02:39:13;14.40;84.00
72883;DHT22;61017;37.812;-122.286;2023-04-15T02:40:44;14.50;84.20
72883;DHT22;61017;37.812;-122.286;2023-04-15T02:42:16;14.50;84.20
72883;DHT22;61017;37.812;-122.286;2023-04-15T02:43:47;14.50;84.20
72883;DHT22;61017;37.812;-122.286;2023-04-15T02:45:22;14.50;84.20
72883;DHT22;61017;37.812;-122.286;2023-04-15T02:46:54;14.50;84.20
72883;DHT22;61017;37.812;-122.286;2023-04-15T02:48:25;14.50;84.20
72883;DHT22;61017;37.812;-122.286;2023-04-15T02:49:57;14.50;84.30
72883;DHT22;61017;37.812;-122.286;2023-04-15T02:51:29;14.50;84.20
72883;DHT22;61017;37.812;-122.286;2023-04-15T02:53:01;14.50;84.20
72883;DHT22;61017;37.812;-122.286;2023-04-15T02:54:33;14.50;84.20
72883;DHT22;61017;37.812;-122.286;2023-04-15T02:56:04;14.50;84.20
72883;DHT22;61017;37.812;-122.286;2023-04-15T02:57:36;14.50;84.20
72883;DHT22;61017;37.812;-122.286;2023-04-15T02:59:07;14.50;84.30
72883;DHT22;61017;37.812;-122.286;2023-04-15T03:00:41;14.50;84.20
72883;DHT22;61017;37.812;-122.286;2023-04-15T03:02:13;14.50;84.20
72883;DHT22;61017;37.812;-122.286;2023-04-15T03:03:44;14.50;84.20
72883;DHT22;61017;37.812;-122.286;2023-04-15T03:05:16;14.50;84.30
72883;DHT22;61017;37.812;-122.286;2023-04-15T03:06:47;14.50;84.30
72883;DHT22;61017;37.812;-122.286;2023-04-15T03:08:19;14.40;84.30
72883;DHT22;61017;37.812;-122.286;2023-04-15T03:09:51;14.40;84.10
72883;DHT22;61017;37.812;-122.286;2023-04-15T03:11:22;14.50;84.10
72883;DHT22;61017;37.812;-122.286;2023-04-15T03:12:54;14.40;84.10
72883;DHT22;61017;37.812;-122.286;2023-04-15T03:14:25;14.40;84.90
72883;DHT22;61017;37.812;-122.286;2023-04-15T03:15:57;14.50;84.20
72883;DHT22;61017;37.812;-122.286;2023-04-15T03:17:28;14.40;84.00
72883;DHT22;61017;37.812;-122.286;2023-04-15T03:19:00;14.40;84.20
72883;DHT22;61017;37.812;-122.286;2023-04-15T03:20:31;14.40;84.30
72883;DHT22;61017;37.812;-122.286;2023-04-15T03:22:03;14.40;84.10
72883;DHT22;61017;37.812;-122.286;2023-04-15T03:23:35;14.40;84.20
72883;DHT22;61017;37.812;-122.286;2023-04-15T03:25:06;14.40;84.10
72883;DHT22;61017;37.812;-122.286;2023-04-15T03:26:38;14.40;84.20
72883;DHT22;61017;37.812;-122.286;2023-04-15T03:28:10;14.40;84.20
72883;DHT22;61017;37.812;-122.286;2023-04-15T03:29:41;14.40;84.30
72883;DHT22;61017;37.812;-122.286;2023-04-15T03:31:13;14.50;84.40
72883;DHT22;61017;37.812;-122.286;2023-04-15T03:32:44;14.40;84.30
72883;DHT22;61017;37.812;-122.286;2023-04-15T03:34:16;14.50;84.40
72883;DHT22;61017;37.812;-122.286;2023-04-15T03:35:48;14.40;84.20
72883;DHT22;61017;37.812;-122.286;2023-04-15T03:37:20;14.50;84.40
72883;DHT22;61017;37.812;-122.286;2023-04-15T03:38:52;14.50;84.40
72883;DHT22;61017;37.812;-122.286;2023-04-15T03:40:23;14.40;84.30
72883;DHT22;61017;37.812;-122.286;2023-04-15T03:41:55;14.50;84.40
72883;DHT22;61017;37.812;-122.286;2023-04-15T03:43:26;14.40;84.30
72883;DHT22;61017;37.812;-122.286;2023-04-15T03:44:58;14.40;85.20
72883;DHT22;61017;37.812;-122.286;2023-04-15T03:46:30;14.40;84.30
72883;DHT22;61017;37.812;-122.286;2023-04-15T03:48:02;14.40;85.30
72883;DHT22;61017;37.812;-122.286;2023-04-15T03:49:33;14.40;84.60
72883;DHT22;61017;37.812;-122.286;2023-04-15T03:51:05;14.40;84.60
72883;DHT22;61017;37.812;-122.286;2023-04-15T03:52:36;14.40;84.50
72883;DHT22;61017;37.812;-122.286;2023-04-15T03:54:08;14.40;84.70
72883;DHT22;61017;37.812;-122.286;2023-04-15T03:55:40;14.40;84.50
72883;DHT22;61017;37.812;-122.286;2023-04-15T03:57:11;14.40;85.00
72883;DHT22;61017;37.812;-122.286;2023-04-15T03:58:43;14.40;85.10
72883;DHT22;61017;37.812;-122.286;2023-04-15T04:00:14;14.40;85.10
72883;DHT22;61017;37.812;-122.286;2023-04-15T04:01:46;14.40;84.80
72883;DHT22;61017;37.812;-122.286;2023-04-15T04:03:18;14.50;84.80
72883;DHT22;61017;37.812;-122.286;2023-04-15T04:04:49;14.40;85.10
72883;DHT22;61017;37.812;-122.286;2023-04-15T04:06:21;14.50;85.30
72883;DHT22;61017;37.812;-122.286;2023-04-15T04:07:52;14.40;85.10
72883;DHT22;61017;37.812;-122.286;2023-04-15T04:09:24;14.50;85.10
72883;DHT22;61017;37.812;-122.286;2023-04-15T04:10:56;14.40;84.90
72883;DHT22;61017;37.812;-122.286;2023-04-15T04:12:27;14.40;85.00
72883;DHT22;61017;37.812;-122.286;2023-04-15T04:13:59;14.50;85.00
72883;DHT22;61017;37.812;-122.286;2023-04-15T04:15:31;14.40;85.10
72883;DHT22;61017;37.812;-122.286;2023-04-15T04:17:02;14.40;85.10
72883;DHT22;61017;37.812;-122.286;2023-04-15T04:18:34;14.50;85.10
72883;DHT22;61017;37.812;-122.286;2023-04-15T04:20:06;14.40;85.10
72883;DHT22;61017;37.812;-122.286;2023-04-15T04:21:38;14.40;85.20
72883;DHT22;61017;37.812;-122.286;2023-04-15T04:23:09;14.40;85.20
72883;DHT22;61017;37.812;-122.286;2023-04-15T04:24:41;14.40;85.20
72883;DHT22;61017;37.812;-122.286;2023-04-15T04:26:13;14.40;85.20
72883;DHT22;61017;37.812;-122.286;2023-04-15T04:27:44;14.40;85.20
72883;DHT22;61017;37.812;-122.286;2023-04-15T04:29:16;14.40;85.20
72883;DHT22;61017;37.812;-122.286;2023-04-15T04:30:47;14.50;85.20
72883;DHT22;61017;37.812;-122.286;2023-04-15T04:32:19;14.40;85.10
72883;DHT22;61017;37.812;-122.286;2023-04-15T04:33:51;14.50;85.20
72883;DHT22;61017;37.812;-122.286;2023-04-15T04:35:22;14.40;85.10
72883;DHT22;61017;37.812;-122.286;2023-04-15T04:36:54;14.40;85.20
72883;DHT22;61017;37.812;-122.286;2023-04-15T04:38:25;14.40;85.20
72883;DHT22;61017;37.812;-122.286;2023-04-15T04:39:57;14.50;85.30
72883;DHT22;61017;37.812;-122.286;2023-04-15T04:41:29;14.40;85.20
72883;DHT22;61017;37.812;-122.286;2023-04-15T04:43:00;14.50;85.30
72883;DHT22;61017;37.812;-122.286;2023-04-15T04:44:32;14.40;85.20
72883;DHT22;61017;37.812;-122.286;2023-04-15T04:46:04;14.40;85.20
72883;DHT22;61017;37.812;-122.286;2023-04-15T04:47:35;14.50;85.40
72883;DHT22;61017;37.812;-122.286;2023-04-15T04:49:07;14.40;85.30
72883;DHT22;61017;37.812;-122.286;2023-04-15T04:50:39;14.40;85.30
72883;DHT22;61017;37.812;-122.286;2023-04-15T04:52:10;14.40;85.30
72883;DHT22;61017;37.812;-122.286;2023-04-15T04:53:42;14.40;85.30
72883;DHT22;61017;37.812;-122.286;2023-04-15T04:55:13;14.40;85.30
72883;DHT22;61017;37.812;-122.286;2023-04-15T04:56:45;14.40;85.30
72883;DHT22;61017;37.812;-122.286;2023-04-15T04:58:16;14.40;85.40
72883;DHT22;61017;37.812;-122.286;2023-04-15T04:59:48;14.40;85.40
72883;DHT22;61017;37.812;-122.286;2023-04-15T05:01:20;14.40;85.40
72883;DHT22;61017;37.812;-122.286;2023-04-15T05:02:51;14.40;85.40
72883;DHT22;61017;37.812;-122.286;2023-04-15T05:04:23;14.40;85.40
72883;DHT22;61017;37.812;-122.286;2023-04-15T05:05:54;14.40;85.30
72883;DHT22;61017;37.812;-122.286;2023-04-15T05:07:26;14.40;85.30
72883;DHT22;61017;37.812;-122.286;2023-04-15T05:08:58;14.40;85.40
72883;DHT22;61017;37.812;-122.286;2023-04-15T05:10:29;14.40;85.30
72883;DHT22;61017;37.812;-122.286;2023-04-15T05:12:01;14.40;85.40
72883;DHT22;61017;37.812;-122.286;2023-04-15T05:13:33;14.40;85.40
72883;DHT22;61017;37.812;-122.286;2023-04-15T05:15:05;14.40;85.40
72883;DHT22;61017;37.812;-122.286;2023-04-15T05:16:37;14.50;85.50
72883;DHT22;61017;37.812;-122.286;2023-04-15T05:18:08;14.40;85.50
72883;DHT22;61017;37.812;-122.286;2023-04-15T05:19:40;14.40;85.40
72883;DHT22;61017;37.812;-122.286;2023-04-15T05:21:12;14.40;85.60
72883;DHT22;61017;37.812;-122.286;2023-04-15T05:22:44;14.40;85.50
72883;DHT22;61017;37.812;-122.286;2023-04-15T05:24:15;14.50;85.60
72883;DHT22;61017;37.812;-122.286;2023-04-15T05:25:47;14.40;85.40
72883;DHT22;61017;37.812;-122.286;2023-04-15T05:27:18;14.50;85.60
72883;DHT22;61017;37.812;-122.286;2023-04-15T05:28:50;14.40;85.60
72883;DHT22;61017;37.812;-122.286;2023-04-15T05:30:22;14.40;85.60
72883;DHT22;61017;37.812;-122.286;2023-04-15T05:31:53;14.40;85.60
72883;DHT22;61017;37.812;-122.286;2023-04-15T05:33:25;14.50;85.70
72883;DHT22;61017;37.812;-122.286;2023-04-15T05:34:57;14.40;85.60
72883;DHT22;61017;37.812;-122.286;2023-04-15T05:36:29;14.40;85.60
72883;DHT22;61017;37.812;-122.286;2023-04-15T05:38:00;14.40;85.70
72883;DHT22;61017;37.812;-122.286;2023-04-15T05:39:32;14.40;85.60
72883;DHT22;61017;37.812;-122.286;2023-04-15T05:41:04;14.40;85.50
72883;DHT22;61017;37.812;-122.286;2023-04-15T05:42:35;14.40;85.60
72883;DHT22;61017;37.812;-122.286;2023-04-15T05:44:07;14.40;85.60
72883;DHT22;61017;37.812;-122.286;2023-04-15T05:45:41;14.40;85.60
72883;DHT22;61017;37.812;-122.286;2023-04-15T05:47:12;14.40;85.50
72883;DHT22;61017;37.812;-122.286;2023-04-15T05:48:44;14.40;86.10
72883;DHT22;61017;37.812;-122.286;2023-04-15T05:50:16;14.40;85.30
72883;DHT22;61017;37.812;-122.286;2023-04-15T05:51:47;14.40;85.30
72883;DHT22;61017;37.812;-122.286;2023-04-15T05:53:19;14.40;85.30
72883;DHT22;61017;37.812;-122.286;2023-04-15T05:54:51;14.40;85.40
72883;DHT22;61017;37.812;-122.286;2023-04-15T05:56:23;14.40;85.30
72883;DHT22;61017;37.812;-122.286;2023-04-15T05:57:54;14.40;85.20
72883;DHT22;61017;37.812;-122.286;2023-04-15T05:59:26;14.40;85.20
72883;DHT22;61017;37.812;-122.286;2023-04-15T06:00:58;14.40;85.20
72883;DHT22;61017;37.812;-122.286;2023-04-15T06:02:29;14.40;85.20
72883;DHT22;61017;37.812;-122.286;2023-04-15T06:04:01;14.40;85.20
72883;DHT22;61017;37.812;-122.286;2023-04-15T06:05:33;14.40;85.10
72883;DHT22;61017;37.812;-122.286;2023-04-15T06:07:04;14.40;85.10
72883;DHT22;61017;37.812;-122.286;2023-04-15T06:08:36;14.50;85.10
72883;DHT22;61017;37.812;-122.286;2023-04-15T06:10:08;14.40;85.10
72883;DHT22;61017;37.812;-122.286;2023-04-15T06:11:40;14.40;85.10
72883;DHT22;61017;37.812;-122.286;2023-04-15T06:13:12;14.40;85.30
72883;DHT22;61017;37.812;-122.286;2023-04-15T06:14:43;14.50;85.20
72883;DHT22;61017;37.812;-122.286;2023-04-15T06:16:15;14.40;85.10
72883;DHT22;61017;37.812;-122.286;2023-04-15T06:17:46;14.40;85.10
72883;DHT22;61017;37.812;-122.286;2023-04-15T06:19:18;14.40;85.20
72883;DHT22;61017;37.812;-122.286;2023-04-15T06:20:50;14.40;85.20
72883;DHT22;61017;37.812;-122.286;2023-04-15T06:22:22;14.50;85.40
72883;DHT22;61017;37.812;-122.286;2023-04-15T06:23:54;14.40;85.20
72883;DHT22;61017;37.812;-122.286;2023-04-15T06:25:25;14.50;85.30
72883;DHT22;61017;37.812;-122.286;2023-04-15T06:26:57;14.40;85.30
72883;DHT22;61017;37.812;-122.286;2023-04-15T06:28:29;14.40;85.20
72883;DHT22;61017;37.812;-122.286;2023-04-15T06:30:00;14.40;85.20
72883;DHT22;61017;37.812;-122.286;2023-04-15T06:31:32;14.50;85.40
72883;DHT22;61017;37.812;-122.286;2023-04-15T06:33:04;14.40;85.30
72883;DHT22;61017;37.812;-122.286;2023-04-15T06:34:36;14.40;85.30
72883;DHT22;61017;37.812;-122.286;2023-04-15T06:36:07;14.50;85.40
72883;DHT22;61017;37.812;-122.286;2023-04-15T06:37:39;14.40;85.30
72883;DHT22;61017;37.812;-122.286;2023-04-15T06:39:10;14.40;85.30
72883;DHT22;61017;37.812;-122.286;2023-04-15T06:40:42;14.50;85.40
72883;DHT22;61017;37.812;-122.286;2023-04-15T06:42:13;14.40;85.30
72883;DHT22;61017;37.812;-122.286;2023-04-15T06:43:45;14.40;86.10
72883;DHT22;61017;37.812;-122.286;2023-04-15T06:45:17;14.50;85.40
72883;DHT22;61017;37.812;-122.286;2023-04-15T06:46:48;14.40;85.30
72883;DHT22;61017;37.812;-122.286;2023-04-15T06:48:20;14.40;86.10
72883;DHT22;61017;37.812;-122.286;2023-04-15T06:49:51;14.50;85.50
72883;DHT22;61017;37.812;-122.286;2023-04-15T06:51:23;14.40;85.40
72883;DHT22;61017;37.812;-122.286;2023-04-15T06:52:55;14.40;85.40
72883;DHT22;61017;37.812;-122.286;2023-04-15T06:54:27;14.50;85.40
72883;DHT22;61017;37.812;-122.286;2023-04-15T06:55:58;14.40;85.30
72883;DHT22;61017;37.812;-122.286;2023-04-15T06:57:30;14.50;85.40
72883;DHT22;61017;37.812;-122.286;2023-04-15T06:59:07;14.40;85.40
72883;DHT22;61017;37.812;-122.286;2023-04-15T07:00:39;14.40;85.30
72883;DHT22;61017;37.812;-122.286;2023-04-15T07:02:13;14.40;85.30
72883;DHT22;61017;37.812;-122.286;2023-04-15T07:03:45;14.40;85.30
72883;DHT22;61017;37.812;-122.286;2023-04-15T07:05:17;14.50;85.40
72883;DHT22;61017;37.812;-122.286;2023-04-15T07:06:51;14.40;85.30
72883;DHT22;61017;37.812;-122.286;2023-04-15T07:08:22;14.50;85.40
72883;DHT22;61017;37.812;-122.286;2023-04-15T07:09:54;14.50;85.30
72883;DHT22;61017;37.812;-122.286;2023-04-15T07:11:28;14.40;85.30
72883;DHT22;61017;37.812;-122.286;2023-04-15T07:13:04;14.40;85.30
72883;DHT22;61017;37.812;-122.286;2023-04-15T07:14:35;14.50;85.40
72883;DHT22;61017;37.812;-122.286;2023-04-15T07:16:07;14.40;85.30
72883;DHT22;61017;37.812;-122.286;2023-04-15T07:17:44;14.40;85.30
72883;DHT22;61017;37.812;-122.286;2023-04-15T07:19:15;14.40;85.20
72883;DHT22;61017;37.812;-122.286;2023-04-15T07:20:47;14.40;85.30
72883;DHT22;61017;37.812;-122.286;2023-04-15T07:22:19;14.40;85.30
72883;DHT22;61017;37.812;-122.286;2023-04-15T07:23:50;14.40;85.20
72883;DHT22;61017;37.812;-122.286;2023-04-15T07:25:23;14.50;85.30
72883;DHT22;61017;37.812;-122.286;2023-04-15T07:26:55;14.40;85.30
72883;DHT22;61017;37.812;-122.286;2023-04-15T07:28:27;14.40;85.10
72883;DHT22;61017;37.812;-122.286;2023-04-15T07:29:58;14.40;85.20
72883;DHT22;61017;37.812;-122.286;2023-04-15T07:31:30;14.50;85.20
72883;DHT22;61017;37.812;-122.286;2023-04-15T07:33:01;14.40;85.20
72883;DHT22;61017;37.812;-122.286;2023-04-15T07:34:33;14.40;85.20
72883;DHT22;61017;37.812;-122.286;2023-04-15T07:36:05;14.50;85.30
72883;DHT22;61017;37.812;-122.286;2023-04-15T07:37:36;14.50;85.30
72883;DHT22;61017;37.812;-122.286;2023-04-15T07:39:08;14.50;85.30
72883;DHT22;61017;37.812;-122.286;2023-04-15T07:40:39;14.40;85.10
72883;DHT22;61017;37.812;-122.286;2023-04-15T07:42:11;14.40;85.20
72883;DHT22;61017;37.812;-122.286;2023-04-15T07:43:42;14.40;85.20
72883;DHT22;61017;37.812;-122.286;2023-04-15T07:45:14;14.40;85.20
72883;DHT22;61017;37.812;-122.286;2023-04-15T07:46:47;14.50;85.20
72883;DHT22;61017;37.812;-122.286;2023-04-15T07:48:18;14.40;85.20
72883;DHT22;61017;37.812;-122.286;2023-04-15T07:49:50;14.40;85.10
72883;DHT22;61017;37.812;-122.286;2023-04-15T07:51:21;14.40;85.20
72883;DHT22;61017;37.812;-122.286;2023-04-15T07:52:53;14.50;85.20
72883;DHT22;61017;37.812;-122.286;2023-04-15T07:54:25;14.40;85.10
72883;DHT22;61017;37.812;-122.286;2023-04-15T07:55:56;14.40;85.20
72883;DHT22;61017;37.812;-122.286;2023-04-15T07:57:28;14.50;85.20
72883;DHT22;61017;37.812;-122.286;2023-04-15T07:58:59;14.40;85.10
72883;DHT22;61017;37.812;-122.286;2023-04-15T08:00:31;14.40;85.10
72883;DHT22;61017;37.812;-122.286;2023-04-15T08:02:03;14.40;85.10
72883;DHT22;61017;37.812;-122.286;2023-04-15T08:03:35;14.40;85.10
72883;DHT22;61017;37.812;-122.286;2023-04-15T08:05:09;14.40;85.10
72883;DHT22;61017;37.812;-122.286;2023-04-15T08:06:41;14.40;85.00
72883;DHT22;61017;37.812;-122.286;2023-04-15T08:08:13;14.40;85.00
72883;DHT22;61017;37.812;-122.286;2023-04-15T08:09:44;14.40;85.00
72883;DHT22;61017;37.812;-122.286;2023-04-15T08:11:16;14.40;85.00
72883;DHT22;61017;37.812;-122.286;2023-04-15T08:12:50;14.50;85.20
72883;DHT22;61017;37.812;-122.286;2023-04-15T08:14:23;14.40;85.10
72883;DHT22;61017;37.812;-122.286;2023-04-15T08:16:15;14.40;85.10
72883;DHT22;61017;37.812;-122.286;2023-04-15T08:17:52;14.50;85.10
72883;DHT22;61017;37.812;-122.286;2023-04-15T08:19:24;14.40;85.00
72883;DHT22;61017;37.812;-122.286;2023-04-15T08:20:55;14.40;85.00
72883;DHT22;61017;37.812;-122.286;2023-04-15T08:22:47;14.40;85.00
72883;DHT22;61017;37.812;-122.286;2023-04-15T08:24:22;14.40;84.90
72883;DHT22;61017;37.812;-122.286;2023-04-15T08:25:54;14.40;84.90
72883;DHT22;61017;37.812;-122.286;2023-04-15T08:27:26;14.40;84.90
72883;DHT22;61017;37.812;-122.286;2023-04-15T08:28:57;14.40;84.90
72883;DHT22;61017;37.812;-122.286;2023-04-15T08:30:29;14.40;84.90
72883;DHT22;61017;37.812;-122.286;2023-04-15T08:32:00;14.40;84.80
72883;DHT22;61017;37.812;-122.286;2023-04-15T08:33:32;14.40;84.90
72883;DHT22;61017;37.812;-122.286;2023-04-15T08:35:04;14.40;84.90
72883;DHT22;61017;37.812;-122.286;2023-04-15T08:36:36;14.40;84.90
72883;DHT22;61017;37.812;-122.286;2023-04-15T08:38:07;14.40;85.00
72883;DHT22;61017;37.812;-122.286;2023-04-15T08:39:39;14.40;85.00
72883;DHT22;61017;37.812;-122.286;2023-04-15T08:41:24;14.40;85.00
72883;DHT22;61017;37.812;-122.286;2023-04-15T08:42:57;14.40;84.80
72883;DHT22;61017;37.812;-122.286;2023-04-15T08:44:31;14.40;84.90
72883;DHT22;61017;37.812;-122.286;2023-04-15T08:46:03;14.40;84.80
72883;DHT22;61017;37.812;-122.286;2023-04-15T08:47:37;14.40;84.80
72883;DHT22;61017;37.812;-122.286;2023-04-15T08:49:10;14.40;84.80
72883;DHT22;61017;37.812;-122.286;2023-04-15T08:51:02;14.40;84.80
72883;DHT22;61017;37.812;-122.286;2023-04-15T08:52:34;14.40;84.80
72883;DHT22;61017;37.812;-122.286;2023-04-15T08:54:08;14.40;84.70
72883;DHT22;61017;37.812;-122.286;2023-04-15T08:55:44;14.40;84.80
72883;DHT22;61017;37.812;-122.286;2023-04-15T08:57:15;14.40;84.80
72883;DHT22;61017;37.812;-122.286;2023-04-15T08:58:50;14.40;84.90
72883;DHT22;61017;37.812;-122.286;2023-04-15T09:00:22;14.40;84.80
72883;DHT22;61017;37.812;-122.286;2023-04-15T09:01:54;14.40;84.80
72883;DHT22;61017;37.812;-122.286;2023-04-15T09:03:26;14.40;84.80
72883;DHT22;61017;37.812;-122.286;2023-04-15T09:04:58;14.40;84.80
72883;DHT22;61017;37.812;-122.286;2023-04-15T09:06:30;14.40;84.70
72883;DHT22;61017;37.812;-122.286;2023-04-15T09:08:02;14.40;84.60
72883;DHT22;61017;37.812;-122.286;2023-04-15T09:09:34;14.40;84.80
72883;DHT22;61017;37.812;-122.286;2023-04-15T09:11:06;14.40;84.70
72883;DHT22;61017;37.812;-122.286;2023-04-15T09:12:37;14.40;84.70
72883;DHT22;61017;37.812;-122.286;2023-04-15T09:14:09;14.40;84.60
72883;DHT22;61017;37.812;-122.286;2023-04-15T09:15:40;14.40;84.70